< < Back
Terminal Aerodrome Forecast


Current Version              Previous Versions:   1  2  3  4  5  6  7  8  9  

Terminal Aerodrome Forecast

971
FTUS44 KHUN 232343 CCA
TAFHSV
TAF COR
KHSV 232343Z 2400/2424 17012G20KT P6SM VCSH SCT025 BKN040 OVC070
     FM240200 20012G20KT P6SM BKN025 OVC040
     FM241400 22012G20KT P6SM VCSH BKN025 OVC040
     FM241700 26010KT P6SM SCT035 SCT250=

Latest METAR

609
SAUS80 KWBC 240000 RRC
MTRHSV
METAR KHSV 232353Z 18015G23KT 10SM FEW020 BKN050 BKN065 17/14 A2950 RMK
AO2 SLP984 60024 T01720144 10172 20139 55007


USA.gov is the U.S. government's official web portal to all federal, state and local government web resources and services.